Time;durP1;ratioP1;P1;durP2;ratioP2;P2;SDS_P1;SDS_P2;PMS_P1;PMS_P2;Temp;Humidity;BMP_temperature;BMP_pressure;BME280_temperature;BME280_humidity;BME280_pressure;Samples;Min_cycle;Max_cycle;Signal;HPM_P1;HPM_P2
2023/09/05 00:00:04;;;;;;;6.40;4.05;;;13.80;99.90;;;;;;5071065;28;20047;-66
2023/09/05 00:02:31;;;;;;;7.00;4.05;;;13.90;99.90;;;;;;5070818;28;20048;-66
2023/09/05 00:04:58;;;;;;;8.20;4.13;;;13.80;99.90;;;;;;5052477;28;20478;-66
2023/09/05 00:07:27;;;;;;;6.25;4.10;;;13.80;99.90;;;;;;5056662;28;20048;-65
2023/09/05 00:09:57;;;;;;;11.15;4.43;;;13.80;99.90;;;;;;5058699;28;20128;-66
2023/09/05 00:12:24;;;;;;;7.45;4.38;;;13.70;99.90;;;;;;5050807;28;20037;-66
2023/09/05 00:14:50;;;;;;;7.95;4.03;;;13.70;99.90;;;;;;5051855;28;20060;-66
2023/09/05 00:17:17;;;;;;;9.00;4.60;;;13.70;99.90;;;;;;5069982;28;20041;-66
2023/09/05 00:19:44;;;;;;;6.50;4.63;;;13.80;99.90;;;;;;5060185;28;20060;-66
2023/09/05 00:22:11;;;;;;;7.97;5.07;;;13.50;99.90;;;;;;5056036;28;20029;-66
2023/09/05 00:24:38;;;;;;;6.93;4.63;;;13.30;99.90;;;;;;5052293;28;20057;-66
2023/09/05 00:27:14;;;;;;;;;;;13.10;99.90;;;;;;5073493;28;20037;-66
2023/09/05 00:29:42;;;;;;;5.40;4.53;;;13.10;99.90;;;;;;5054349;28;20011;-66
2023/09/05 00:32:09;;;;;;;8.07;4.93;;;13.00;99.90;;;;;;5036731;28;20407;-66
2023/09/05 00:34:37;;;;;;;6.60;4.57;;;13.00;99.90;;;;;;5059354;28;20040;-66
2023/09/05 00:37:06;;;;;;;8.57;4.53;;;13.00;99.90;;;;;;5045313;28;20063;-65
2023/09/05 00:39:34;;;;;;;6.55;4.20;;;13.10;99.90;;;;;;5062993;28;20199;-66
2023/09/05 00:42:03;;;;;;;7.13;4.45;;;13.20;99.90;;;;;;5056797;28;20043;-66
2023/09/05 00:44:30;;;;;;;9.35;4.28;;;13.20;99.90;;;;;;5051406;28;20049;-65
2023/09/05 00:46:59;;;;;;;6.10;4.35;;;13.30;99.90;;;;;;5069065;28;20063;-66
2023/09/05 00:49:27;;;;;;;7.00;4.50;;;13.10;99.90;;;;;;5047123;28;20640;-66
2023/09/05 00:52:00;;;;;;;6.78;4.45;;;13.00;99.90;;;;;;5073861;28;20028;-66
2023/09/05 00:54:27;;;;;;;5.90;4.22;;;13.00;99.90;;;;;;5056343;28;20041;-66
2023/09/05 00:56:55;;;;;;;6.05;4.18;;;13.00;99.90;;;;;;5073679;28;20056;-66
2023/09/05 00:59:22;;;;;;;;;;;13.00;99.90;;;;;;5054235;28;20132;-66
2023/09/05 01:01:48;;;;;;;7.85;3.80;;;13.00;99.90;;;;;;5058289;28;20366;-65
2023/09/05 01:04:16;;;;;;;5.85;4.13;;;13.00;99.90;;;;;;5062650;28;20044;-65
2023/09/05 01:07:00;;;;;;;6.53;3.95;;;13.00;99.90;;;;;;5064128;28;20523;-66
2023/09/05 01:09:42;;;;;;;6.20;3.50;;;13.10;99.90;;;;;;5039622;28;20559;-65
2023/09/05 01:12:08;;;;;;;8.90;4.13;;;13.10;99.90;;;;;;5054477;28;20067;-65
2023/09/05 01:14:38;;;;;;;7.18;4.45;;;13.00;99.90;;;;;;5050883;28;20075;-65
2023/09/05 01:17:05;;;;;;;7.25;4.50;;;13.10;99.90;;;;;;5070208;28;20186;-65
2023/09/05 01:19:36;;;;;;;6.10;3.55;;;13.10;99.90;;;;;;5035806;28;20163;-65
2023/09/05 01:22:12;;;;;;;8.32;4.28;;;13.10;99.90;;;;;;5044794;28;20173;-65
2023/09/05 01:24:40;;;;;;;7.95;4.10;;;13.10;99.90;;;;;;5062180;28;20052;-66
2023/09/05 01:27:09;;;;;;;5.20;3.80;;;13.20;99.90;;;;;;5048448;28;20052;-65
2023/09/05 01:29:38;;;;;;;6.72;4.43;;;13.20;99.90;;;;;;5039426;28;20037;-65
2023/09/05 01:32:11;;;;;;;6.65;3.58;;;13.20;99.90;;;;;;5065373;28;20032;-65
2023/09/05 01:34:38;;;;;;;6.28;3.92;;;13.20;99.90;;;;;;5055762;28;20040;-66
2023/09/05 01:37:06;;;;;;;6.35;4.30;;;13.20;99.90;;;;;;5034989;28;20067;-65
2023/09/05 01:39:32;;;;;;;6.10;3.60;;;13.20;99.90;;;;;;5039364;28;20043;-66
2023/09/05 01:41:59;;;;;;;6.07;3.78;;;13.20;99.90;;;;;;5044334;28;20052;-65
2023/09/05 01:44:26;;;;;;;5.43;3.78;;;13.20;99.90;;;;;;5043815;28;20052;-66
2023/09/05 01:46:53;;;;;;;7.20;4.20;;;13.10;99.90;;;;;;5054934;28;20040;-65
2023/09/05 01:49:20;;;;;;;7.85;4.57;;;13.00;99.90;;;;;;5058190;28;20037;-65
2023/09/05 01:51:46;;;;;;;6.13;4.07;;;12.80;99.90;;;;;;5035405;28;20048;-65
2023/09/05 01:54:13;;;;;;;7.10;4.80;;;12.70;99.90;;;;;;5035844;28;20478;-65
2023/09/05 01:56:40;;;;;;;8.30;3.92;;;12.70;99.90;;;;;;5069822;28;20127;-65
2023/09/05 01:59:07;;;;;;;7.35;4.53;;;12.60;99.90;;;;;;5050977;28;20049;-66
2023/09/05 02:01:34;;;;;;;9.00;4.65;;;12.60;99.90;;;;;;5043545;28;20142;-66
2023/09/05 02:04:01;;;;;;;7.63;4.45;;;12.70;99.90;;;;;;5043243;28;20071;-65
2023/09/05 02:06:28;;;;;;;7.78;4.38;;;12.70;99.90;;;;;;5055389;28;20064;-65
2023/09/05 02:08:55;;;;;;;9.30;4.45;;;12.70;99.90;;;;;;5062543;28;20075;-65
2023/09/05 02:11:21;;;;;;;6.40;4.03;;;12.80;99.90;;;;;;5053449;28;20037;-66
2023/09/05 02:13:48;;;;;;;8.13;3.97;;;12.80;99.90;;;;;;5037042;28;20068;-66
2023/09/05 02:16:18;;;;;;;8.25;4.60;;;12.80;99.90;;;;;;5050473;28;20123;-66
2023/09/05 02:18:47;;;;;;;6.72;4.32;;;12.80;99.90;;;;;;5043089;28;20164;-65
2023/09/05 02:21:14;;;;;;;10.65;4.30;;;12.90;99.90;;;;;;5035635;28;20070;-65
2023/09/05 02:23:42;;;;;;;5.97;4.07;;;12.90;99.90;;;;;;5070490;28;20098;-65
2023/09/05 02:26:09;;;;;;;6.15;3.97;;;12.90;99.90;;;;;;5054854;28;20040;-66
2023/09/05 02:28:37;;;;;;;;;;;12.90;99.90;;;;;;5056962;28;20041;-65
2023/09/05 02:31:08;;;;;;;7.07;3.90;;;12.80;99.90;;;;;;5044131;28;20420;-65
2023/09/05 02:33:36;;;;;;;5.30;3.80;;;12.80;99.90;;;;;;5054719;28;20084;-65
2023/09/05 02:36:18;;;;;;;6.75;3.70;;;12.80;99.90;;;;;;5053281;28;20879;-65
2023/09/05 02:38:46;;;;;;;6.47;3.95;;;12.80;99.90;;;;;;5060598;28;20041;-65
2023/09/05 02:41:13;;;;;;;;;;;12.70;99.90;;;;;;5048905;28;20048;-65
2023/09/05 02:43:40;;;;;;;5.50;3.80;;;12.70;99.90;;;;;;5064035;28;20016;-65
2023/09/05 02:46:08;;;;;;;6.35;4.10;;;12.80;99.90;;;;;;5034400;28;20047;-66
2023/09/05 02:48:37;;;;;;;;;;;12.80;99.90;;;;;;5057635;28;20040;-66
2023/09/05 02:51:05;;;;;;;6.05;4.07;;;12.70;99.90;;;;;;5071176;28;19930;-65
2023/09/05 02:53:33;;;;;;;9.18;4.68;;;12.80;99.90;;;;;;5047545;28;20118;-65
2023/09/05 02:56:00;;;;;;;7.28;4.38;;;12.80;99.90;;;;;;5042254;28;20041;-65
2023/09/05 02:58:28;;;;;;;10.50;4.05;;;12.80;99.90;;;;;;5060415;28;20037;-65
2023/09/05 03:01:03;;;;;;;6.60;4.47;;;12.60;99.90;;;;;;5051671;28;20047;-65
2023/09/05 03:03:30;;;;;;;7.25;4.05;;;12.40;99.90;;;;;;5053600;28;20068;-65
2023/09/05 03:06:06;;;;;;;6.55;3.97;;;12.20;99.90;;;;;;5062214;28;20044;-65
2023/09/05 03:08:35;;;;;;;8.30;4.78;;;12.10;99.90;;;;;;5048943;28;20048;-65
2023/09/05 03:11:03;;;;;;;5.95;4.32;;;12.00;99.90;;;;;;5038119;28;20068;-65
2023/09/05 03:13:30;;;;;;;8.25;4.88;;;12.00;99.90;;;;;;5034025;28;20037;-65
2023/09/05 03:15:56;;;;;;;8.18;5.03;;;12.00;99.90;;;;;;5049991;28;20049;-65
2023/09/05 03:18:25;;;;;;;11.98;4.93;;;11.90;99.90;;;;;;5042732;28;20036;-65
2023/09/05 03:20:52;;;;;;;5.97;3.90;;;12.00;99.90;;;;;;5060354;28;20343;-65
2023/09/05 03:23:22;;;;;;;8.30;4.65;;;11.90;99.90;;;;;;5067484;28;20041;-65
2023/09/05 03:25:52;;;;;;;7.20;4.47;;;12.00;99.90;;;;;;5042300;28;20044;-65
2023/09/05 03:28:19;;;;;;;5.80;3.85;;;12.00;99.90;;;;;;5041457;28;20087;-65
2023/09/05 03:30:46;;;;;;;12.02;4.57;;;12.00;99.90;;;;;;5050090;28;20044;-65
2023/09/05 03:33:13;;;;;;;9.60;4.30;;;12.00;99.90;;;;;;5041924;28;20127;-65
2023/09/05 03:35:42;;;;;;;6.00;3.97;;;12.00;99.90;;;;;;5055702;28;20422;-65
2023/09/05 03:38:09;;;;;;;9.38;4.25;;;12.00;99.90;;;;;;5053401;28;20106;-65
2023/09/05 03:40:36;;;;;;;4.60;3.80;;;12.00;99.90;;;;;;5038410;28;20143;-65
2023/09/05 03:43:03;;;;;;;7.15;4.97;;;12.00;99.90;;;;;;5050948;28;20055;-65
2023/09/05 03:45:30;;;;;;;6.30;4.13;;;11.90;99.90;;;;;;5066432;28;20041;-65
2023/09/05 03:47:59;;;;;;;6.65;4.00;;;12.00;99.90;;;;;;5044178;28;20489;-65
2023/09/05 03:50:28;;;;;;;8.88;4.30;;;12.00;99.90;;;;;;5057485;28;20094;-65
2023/09/05 03:52:56;;;;;;;6.55;3.95;;;11.90;99.90;;;;;;5054005;28;20049;-65
2023/09/05 03:55:23;;;;;;;6.32;4.25;;;12.00;99.90;;;;;;5062003;28;20515;-65
2023/09/05 03:57:50;;;;;;;6.60;4.40;;;12.00;99.90;;;;;;5055180;28;20383;-65
2023/09/05 04:00:17;;;;;;;8.23;4.78;;;11.90;99.90;;;;;;5046368;28;20044;-65
2023/09/05 04:02:44;;;;;;;6.78;4.43;;;11.90;99.90;;;;;;5044966;28;20087;-65
2023/09/05 04:05:12;;;;;;;6.93;4.30;;;11.90;99.90;;;;;;5051199;28;20052;-65
2023/09/05 04:07:39;;;;;;;8.27;4.95;;;11.90;99.90;;;;;;5056271;28;20048;-65
2023/09/05 04:10:09;;;;;;;7.25;4.45;;;11.90;99.90;;;;;;5067243;28;20037;-65
2023/09/05 04:12:37;;;;;;;6.68;3.67;;;11.90;99.90;;;;;;5060843;28;20490;-65
2023/09/05 04:15:04;;;;;;;5.80;3.90;;;11.90;99.90;;;;;;5034624;28;20048;-66
2023/09/05 04:17:31;;;;;;;7.53;4.60;;;11.90;99.90;;;;;;5037078;28;20057;-65
2023/09/05 04:19:58;;;;;;;10.25;4.38;;;11.80;99.90;;;;;;5052940;28;20053;-65
2023/09/05 04:22:28;;;;;;;6.13;4.03;;;11.80;99.90;;;;;;5040112;28;20045;-65
2023/09/05 04:24:55;;;;;;;14.23;4.63;;;11.70;99.90;;;;;;5055785;28;20052;-65
2023/09/05 04:27:29;;;;;;;9.80;4.43;;;11.70;99.90;;;;;;5050773;28;20495;-65
2023/09/05 04:29:56;;;;;;;8.82;4.30;;;11.60;99.90;;;;;;5070542;28;20115;-65
2023/09/05 04:32:30;;;;;;;8.65;5.05;;;11.60;99.90;;;;;;5070660;28;20115;-65
2023/09/05 04:34:59;;;;;;;8.85;4.40;;;11.60;99.90;;;;;;5051637;28;20519;-66
2023/09/05 04:37:27;;;;;;;6.43;4.30;;;11.60;99.90;;;;;;5052311;28;20460;-65
2023/09/05 04:40:00;;;;;;;11.25;4.47;;;11.50;99.90;;;;;;5045246;28;20052;-65
2023/09/05 04:42:27;;;;;;;7.90;4.63;;;11.50;99.90;;;;;;5052289;28;20451;-65
2023/09/05 04:44:54;;;;;;;10.70;5.05;;;11.50;99.90;;;;;;5044873;28;20142;-65
2023/09/05 04:47:21;;;;;;;6.80;4.80;;;11.50;99.90;;;;;;5065875;28;20036;-65
2023/09/05 04:49:53;;;;;;;7.55;5.20;;;11.60;99.90;;;;;;5070251;28;20090;-65
2023/09/05 04:52:21;;;;;;;8.13;5.13;;;11.60;99.90;;;;;;5070203;28;20116;-66
2023/09/05 04:54:48;;;;;;;10.10;6.15;;;11.70;99.90;;;;;;5070717;28;20033;-65
2023/09/05 04:57:16;;;;;;;9.70;5.50;;;11.70;99.90;;;;;;5070573;28;20071;-65
2023/09/05 04:59:44;;;;;;;7.07;4.85;;;11.70;99.90;;;;;;5069754;28;20055;-65
2023/09/05 05:02:11;;;;;;;10.18;5.55;;;11.80;99.90;;;;;;5070532;28;20062;-65
2023/09/05 05:04:38;;;;;;;8.27;5.13;;;11.80;99.90;;;;;;5070282;28;20102;-65
2023/09/05 05:07:05;;;;;;;14.32;5.47;;;11.80;99.90;;;;;;5070406;28;20416;-65
2023/09/05 05:09:32;;;;;;;9.82;5.78;;;11.80;99.90;;;;;;5070043;28;20389;-65
2023/09/05 05:11:59;;;;;;;8.02;5.82;;;11.80;99.90;;;;;;5071292;28;20385;-65
2023/09/05 05:14:28;;;;;;;8.95;6.55;;;11.80;99.90;;;;;;5074017;28;20047;-65
2023/09/05 05:16:55;;;;;;;9.95;6.57;;;11.80;99.90;;;;;;5074014;28;20040;-64
2023/09/05 05:19:22;;;;;;;10.02;6.22;;;11.80;99.90;;;;;;5073212;28;20036;-65
2023/09/05 05:21:50;;;;;;;11.43;6.15;;;11.80;99.90;;;;;;5073738;28;20048;-65
2023/09/05 05:24:16;;;;;;;13.30;6.03;;;11.80;99.90;;;;;;5072015;28;20052;-65
2023/09/05 05:26:44;;;;;;;12.70;7.22;;;11.80;99.90;;;;;;5072527;28;20048;-65
2023/09/05 05:29:11;;;;;;;12.23;7.10;;;11.90;99.90;;;;;;5072360;28;20587;-65
2023/09/05 05:31:41;;;;;;;11.48;8.00;;;12.00;99.90;;;;;;5055357;28;20047;-65
2023/09/05 05:34:08;;;;;;;13.68;8.07;;;12.10;99.90;;;;;;5072260;28;20040;-65
2023/09/05 05:36:35;;;;;;;20.35;8.20;;;12.20;99.90;;;;;;5060522;28;20434;-65
2023/09/05 05:39:03;;;;;;;14.75;8.23;;;12.30;99.90;;;;;;5058708;28;20040;-65
2023/09/05 05:41:29;;;;;;;14.63;7.93;;;12.40;99.90;;;;;;5069412;28;20040;-65
2023/09/05 05:43:56;;;;;;;14.68;8.15;;;12.40;99.90;;;;;;5071859;28;20056;-65
2023/09/05 05:46:23;;;;;;;14.18;8.00;;;12.50;99.90;;;;;;5064380;28;20090;-65
2023/09/05 05:48:51;;;;;;;14.25;7.30;;;12.50;99.90;;;;;;5063152;28;20037;-65
2023/09/05 05:51:18;;;;;;;15.07;7.05;;;12.60;99.90;;;;;;5070700;28;20040;-65
2023/09/05 05:53:46;;;;;;;11.05;7.25;;;12.60;99.90;;;;;;5052903;28;20543;-65
2023/09/05 05:56:13;;;;;;;10.63;7.25;;;12.60;99.90;;;;;;5053882;28;20052;-65
2023/09/05 05:58:40;;;;;;;14.70;7.15;;;12.60;99.90;;;;;;5059138;28;20049;-65
2023/09/05 06:01:07;;;;;;;11.77;7.68;;;12.70;99.90;;;;;;5060274;28;20067;-65
2023/09/05 06:03:35;;;;;;;12.20;6.82;;;12.70;99.90;;;;;;5068420;28;20078;-65
2023/09/05 06:06:03;;;;;;;11.73;6.88;;;12.80;99.90;;;;;;5061693;28;20124;-65
2023/09/05 06:08:30;;;;;;;12.05;7.50;;;12.90;99.90;;;;;;5035155;28;20043;-65
2023/09/05 06:10:57;;;;;;;;;;;12.90;99.90;;;;;;5059266;28;20044;-65
2023/09/05 06:13:24;;;;;;;13.13;8.65;;;13.00;99.90;;;;;;5069134;28;19927;-65
2023/09/05 06:15:51;;;;;;;13.30;8.10;;;13.10;99.90;;;;;;5052233;28;20052;-65
2023/09/05 06:18:19;;;;;;;10.68;7.47;;;13.10;99.90;;;;;;5060414;28;20044;-65
2023/09/05 06:20:46;;;;;;;12.60;6.97;;;13.30;99.90;;;;;;5065866;28;20133;-65
2023/09/05 06:23:13;;;;;;;11.85;6.88;;;13.30;99.90;;;;;;5053888;28;20553;-65
2023/09/05 06:25:40;;;;;;;16.40;8.23;;;13.40;99.90;;;;;;5052339;28;20486;-65
2023/09/05 06:28:07;;;;;;;10.95;7.55;;;13.60;99.90;;;;;;5059406;28;20047;-65
2023/09/05 06:30:34;;;;;;;10.40;6.97;;;13.70;99.90;;;;;;5060350;28;20048;-65
2023/09/05 06:33:00;;;;;;;15.40;7.13;;;13.80;99.90;;;;;;5051725;28;20049;-65
2023/09/05 06:35:27;;;;;;;8.48;6.47;;;14.10;99.90;;;;;;5069700;28;20079;-65
2023/09/05 06:37:55;;;;;;;15.43;6.85;;;14.20;99.90;;;;;;5071630;28;20494;-65
2023/09/05 06:40:23;;;;;;;10.82;6.03;;;14.40;99.90;;;;;;5051540;28;20056;-65
2023/09/05 06:42:51;;;;;;;8.60;6.10;;;14.50;99.90;;;;;;5047307;28;20055;-65
2023/09/05 06:45:19;;;;;;;13.45;7.22;;;14.70;99.90;;;;;;5070336;28;20072;-66
2023/09/05 06:47:46;;;;;;;10.52;6.22;;;14.80;99.90;;;;;;5060094;28;20036;-65
2023/09/05 06:50:13;;;;;;;8.38;6.07;;;15.00;99.90;;;;;;5052209;28;20075;-65
2023/09/05 06:52:39;;;;;;;10.82;5.85;;;15.00;99.90;;;;;;5066494;28;20120;-65
2023/09/05 06:55:06;;;;;;;8.98;6.05;;;15.20;99.90;;;;;;5059936;28;20410;-65
2023/09/05 06:57:33;;;;;;;11.85;6.45;;;15.30;99.90;;;;;;5054715;28;20037;-65
2023/09/05 07:00:00;;;;;;;8.45;6.13;;;15.40;99.90;;;;;;5071568;28;20040;-65
2023/09/05 07:02:27;;;;;;;12.13;5.38;;;15.50;99.90;;;;;;5062553;28;20101;-65
2023/09/05 07:04:54;;;;;;;9.55;6.35;;;15.60;99.90;;;;;;5063478;28;20075;-65
2023/09/05 07:07:21;;;;;;;9.23;5.68;;;15.70;99.90;;;;;;5063018;28;20547;-66
2023/09/05 07:09:47;;;;;;;8.77;6.10;;;15.70;99.90;;;;;;5066080;28;20051;-65
2023/09/05 07:12:14;;;;;;;11.48;5.85;;;15.80;99.90;;;;;;5051133;28;20147;-65
2023/09/05 07:14:42;;;;;;;9.25;6.25;;;15.90;99.90;;;;;;5052007;28;20112;-65
2023/09/05 07:17:11;;;;;;;11.98;5.78;;;16.00;99.90;;;;;;5067861;28;20055;-66
2023/09/05 07:19:38;;;;;;;9.05;5.65;;;16.20;99.90;;;;;;5053981;28;20127;-66
2023/09/05 07:22:05;;;;;;;9.00;6.10;;;16.30;99.90;;;;;;5063142;28;20045;-65
2023/09/05 07:24:32;;;;;;;13.60;5.70;;;16.40;99.90;;;;;;5054460;28;20120;-65
2023/09/05 07:26:59;;;;;;;9.32;5.53;;;16.50;99.90;;;;;;5064822;28;20037;-65
2023/09/05 07:29:31;;;;;;;7.85;5.80;;;16.60;99.90;;;;;;5058264;28;20555;-66
2023/09/05 07:31:57;;;;;;;8.13;5.38;;;16.70;99.90;;;;;;5058078;28;20115;-66
2023/09/05 07:34:26;;;;;;;9.50;5.30;;;16.80;99.90;;;;;;5058925;28;20140;-65
2023/09/05 07:36:54;;;;;;;7.20;5.15;;;16.80;99.90;;;;;;5050701;28;20120;-66
2023/09/05 07:39:21;;;;;;;8.00;5.75;;;16.90;99.90;;;;;;5058252;28;20072;-65
2023/09/05 07:41:48;;;;;;;7.75;5.35;;;16.90;99.90;;;;;;5070336;28;20508;-66
2023/09/05 07:44:15;;;;;;;9.75;5.72;;;17.00;99.90;;;;;;5061524;28;20392;-65
2023/09/05 07:46:41;;;;;;;11.13;6.00;;;17.10;99.90;;;;;;5051066;28;20053;-65
2023/09/05 07:49:08;;;;;;;9.60;6.07;;;17.10;99.90;;;;;;5057994;28;20047;-65
2023/09/05 07:51:35;;;;;;;8.93;5.78;;;17.20;99.90;;;;;;5067935;28;20079;-65
2023/09/05 07:54:04;;;;;;;6.88;5.90;;;17.50;99.90;;;;;;5058953;28;20041;-65
2023/09/05 07:56:31;;;;;;;9.27;5.05;;;17.60;99.90;;;;;;5050797;28;20045;-66
2023/09/05 07:58:58;;;;;;;;;;;17.70;99.90;;;;;;5059130;28;20513;-65
2023/09/05 08:01:25;;;;;;;6.50;5.18;;;17.70;99.90;;;;;;5052474;28;20361;-65
2023/09/05 08:03:53;;;;;;;7.43;4.80;;;17.80;99.90;;;;;;5058816;28;20049;-66
2023/09/05 08:06:20;;;;;;;6.78;4.78;;;17.90;99.90;;;;;;5058085;28;20049;-65
2023/09/05 08:08:47;;;;;;;9.23;5.05;;;17.90;99.90;;;;;;5050539;28;20041;-65
2023/09/05 08:11:14;;;;;;;9.73;5.40;;;18.00;99.90;;;;;;5060312;28;20424;-66
2023/09/05 08:13:41;;;;;;;6.72;4.50;;;18.00;99.90;;;;;;5040944;28;20047;-66
2023/09/05 08:16:10;;;;;;;10.93;5.35;;;18.10;99.90;;;;;;5050581;28;20048;-65
2023/09/05 08:18:37;;;;;;;6.57;4.72;;;18.20;99.90;;;;;;5058392;28;20037;-66
2023/09/05 08:21:04;;;;;;;8.52;4.53;;;18.30;99.90;;;;;;5057316;28;20040;-66
2023/09/05 08:23:31;;;;;;;6.22;4.20;;;18.50;99.90;;;;;;5042240;28;20070;-66
2023/09/05 08:25:59;;;;;;;6.28;4.68;;;18.60;99.90;;;;;;5041241;28;20593;-66
2023/09/05 08:28:32;;;;;;;10.00;5.13;;;18.70;99.90;;;;;;5060715;28;20119;-66
2023/09/05 08:31:00;;;;;;;9.77;5.00;;;18.80;99.90;;;;;;5070353;28;20048;-65
2023/09/05 08:33:30;;;;;;;7.53;4.40;;;18.90;99.90;;;;;;5070269;28;20037;-66
2023/09/05 08:35:57;;;;;;;6.15;4.95;;;19.00;99.90;;;;;;5069254;28;20036;-66
2023/09/05 08:38:24;;;;;;;5.10;4.25;;;19.00;99.90;;;;;;5055433;28;20044;-66
2023/09/05 08:40:58;;;;;;;8.73;5.00;;;19.10;99.90;;;;;;5065211;28;20044;-66
2023/09/05 08:43:26;;;;;;;9.38;4.30;;;19.20;99.90;;;;;;5049715;28;20043;-66
2023/09/05 08:45:54;;;;;;;8.95;4.85;;;19.40;99.90;;;;;;5063829;28;20044;-66
2023/09/05 08:48:21;;;;;;;7.80;4.30;;;19.50;99.90;;;;;;5045675;28;20091;-66
2023/09/05 08:50:48;;;;;;;;;;;19.50;99.90;;;;;;5062749;28;20505;-66
2023/09/05 08:53:18;;;;;;;9.43;5.20;;;19.60;99.90;;;;;;5063657;28;19927;-66
2023/09/05 08:55:48;;;;;;;5.40;4.28;;;19.70;99.90;;;;;;5070403;28;20037;-66
2023/09/05 08:58:17;;;;;;;7.82;5.10;;;19.80;99.90;;;;;;5053831;28;20029;-66
2023/09/05 09:00:44;;;;;;;8.68;5.10;;;19.80;99.90;;;;;;5070085;28;20428;-66
2023/09/05 09:03:11;;;;;;;5.90;4.68;;;20.00;99.90;;;;;;5074088;28;20040;-66
2023/09/05 09:05:38;;;;;;;8.38;4.80;;;20.00;99.90;;;;;;5059938;28;20045;-66
2023/09/05 09:08:05;;;;;;;;;;;20.10;99.90;;;;;;5074462;28;20067;-66
2023/09/05 09:10:32;;;;;;;5.68;4.22;;;20.20;99.90;;;;;;5055752;28;19966;-66
2023/09/05 09:13:19;;;;;;;5.53;4.47;;;20.40;99.90;;;;;;5060566;28;20044;-66
2023/09/05 09:15:46;;;;;;;5.70;4.32;;;20.50;99.90;;;;;;5061168;28;20552;-66
2023/09/05 09:18:14;;;;;;;6.82;4.20;;;20.50;99.90;;;;;;5058255;28;20045;-66
2023/09/05 09:20:45;;;;;;;5.30;4.45;;;20.50;99.90;;;;;;5061372;28;20163;-66
2023/09/05 09:23:12;;;;;;;5.00;3.55;;;20.50;99.90;;;;;;5059227;28;20045;-66
2023/09/05 09:25:49;;;;;;;7.90;4.50;;;20.60;99.90;;;;;;5061882;28;20128;-66
2023/09/05 09:28:32;;;;;;;9.85;4.57;;;20.70;99.90;;;;;;5053763;28;20084;-66
2023/09/05 09:31:01;;;;;;;8.55;4.32;;;20.70;99.90;;;;;;5058527;28;20045;-66
2023/09/05 09:33:30;;;;;;;7.97;4.50;;;20.80;99.90;;;;;;5055622;28;20059;-66
2023/09/05 09:36:00;;;;;;;6.35;4.53;;;20.80;99.90;;;;;;5058726;28;20047;-66
2023/09/05 09:38:28;;;;;;;9.05;4.47;;;20.90;99.90;;;;;;5069207;28;20037;-66
2023/09/05 09:40:55;;;;;;;6.45;4.18;;;21.00;99.90;;;;;;5068821;28;20037;-66
2023/09/05 09:43:22;;;;;;;;;;;21.00;99.90;;;;;;5061620;28;20055;-66
2023/09/05 09:45:50;;;;;;;6.50;4.32;;;21.00;99.90;;;;;;5055784;28;19924;-66
2023/09/05 09:48:20;;;;;;;7.32;5.05;;;21.20;99.90;;;;;;5062692;28;20044;-66
2023/09/05 09:50:48;;;;;;;8.75;4.53;;;21.20;99.90;;;;;;5061028;28;20048;-66
2023/09/05 09:53:22;;;;;;;7.82;5.07;;;21.20;99.90;;;;;;5059941;28;20086;-66
2023/09/05 09:55:52;;;;;;;5.70;4.72;;;21.20;99.90;;;;;;5047358;28;20486;-66
2023/09/05 09:58:22;;;;;;;7.95;5.05;;;21.20;99.90;;;;;;5068473;28;20044;-66
2023/09/05 10:00:50;;;;;;;10.88;5.28;;;21.20;99.90;;;;;;5034567;28;20048;-66
2023/09/05 10:03:19;;;;;;;6.55;4.90;;;21.10;99.90;;;;;;5061376;28;20398;-66
2023/09/05 10:05:46;;;;;;;9.50;4.80;;;21.10;99.90;;;;;;5067268;28;20082;-66
2023/09/05 10:08:14;;;;;;;5.75;4.78;;;21.10;99.90;;;;;;5072742;28;20051;-66
2023/09/05 10:10:41;;;;;;;9.32;4.72;;;21.00;99.90;;;;;;5053589;28;20060;-66
2023/09/05 10:13:09;;;;;;;13.40;5.07;;;21.00;99.90;;;;;;5052721;28;20047;-66
2023/09/05 10:15:36;;;;;;;7.93;4.43;;;21.00;99.90;;;;;;5053068;28;20536;-66
2023/09/05 10:18:07;;;;;;;6.10;4.25;;;20.90;99.90;;;;;;5060663;28;20072;-66
2023/09/05 10:20:35;;;;;;;10.77;5.15;;;20.90;99.90;;;;;;5051948;28;20502;-66
2023/09/05 10:23:05;;;;;;;7.97;4.13;;;21.00;99.90;;;;;;5041446;28;20051;-66
2023/09/05 10:25:34;;;;;;;6.40;3.92;;;21.00;99.90;;;;;;5060027;28;20127;-66
2023/09/05 10:28:01;;;;;;;7.05;4.40;;;21.00;99.90;;;;;;5072365;28;20037;-66
2023/09/05 10:30:28;;;;;;;9.45;4.38;;;21.00;99.90;;;;;;5055069;28;20040;-66
2023/09/05 10:32:57;;;;;;;;;;;21.00;99.90;;;;;;5064568;28;20047;-66
2023/09/05 10:35:24;;;;;;;8.55;3.45;;;21.00;99.90;;;;;;5055519;28;19956;-66
2023/09/05 10:37:55;;;;;;;8.77;4.07;;;21.00;99.90;;;;;;5060359;28;20393;-66
2023/09/05 10:40:33;;;;;;;7.68;4.05;;;21.10;99.90;;;;;;5060173;28;20095;-66
2023/09/05 10:43:03;;;;;;;10.65;4.05;;;21.10;99.90;;;;;;5068993;28;20037;-66
2023/09/05 10:45:32;;;;;;;7.65;3.83;;;21.20;99.90;;;;;;5063622;28;20536;-66
2023/09/05 10:48:15;;;;;;;7.80;3.58;;;21.30;99.90;;;;;;5051740;28;20048;-66
2023/09/05 10:51:11;;;;;;;6.95;3.70;;;21.40;99.90;;;;;;5052812;28;20521;-66
2023/09/05 10:53:42;;;;;;;11.02;4.57;;;21.50;99.90;;;;;;5053581;28;20037;-66
2023/09/05 10:56:40;;;;;;;10.73;3.75;;;21.50;99.90;;;;;;5051440;28;20078;-66
2023/09/05 10:59:27;;;;;;;9.98;4.35;;;21.50;99.90;;;;;;5051149;28;20116;-66
2023/09/05 11:02:00;;;;;;;5.13;3.63;;;21.50;99.90;;;;;;5060077;28;20040;-66
2023/09/05 11:04:34;;;;;;;5.25;3.70;;;21.50;99.90;;;;;;5052420;28;20040;-66
2023/09/05 11:07:07;;;;;;;5.43;3.50;;;21.50;99.90;;;;;;5055621;28;20040;-66
2023/09/05 11:09:41;;;;;;;8.23;4.10;;;21.40;99.90;;;;;;5070443;28;20047;-66
2023/09/05 11:12:10;;;;;;;5.00;3.45;;;21.40;99.90;;;;;;5038416;28;20040;-66
2023/09/05 11:14:37;;;;;;;8.70;3.55;;;21.50;99.90;;;;;;5057809;28;20040;-66
2023/09/05 11:17:03;;;;;;;;;;;21.50;99.90;;;;;;5052057;28;20044;-66
2023/09/05 11:19:40;;;;;;;10.43;3.75;;;21.60;99.90;;;;;;5067131;28;19920;-66
2023/09/05 11:22:21;;;;;;;6.10;3.88;;;21.60;99.90;;;;;;5057148;28;20045;-66
2023/09/05 11:24:51;;;;;;;8.65;3.85;;;21.60;99.90;;;;;;5051371;28;20037;-66
2023/09/05 11:27:21;;;;;;;4.75;3.33;;;21.70;99.90;;;;;;5052013;28;20048;-66
2023/09/05 11:29:51;;;;;;;7.10;3.50;;;21.70;99.90;;;;;;5060613;28;20123;-66
2023/09/05 11:32:19;;;;;;;8.98;3.95;;;21.70;99.90;;;;;;5065313;28;20041;-66
2023/09/05 11:34:47;;;;;;;6.68;4.20;;;21.80;99.90;;;;;;5050922;28;20037;-66
2023/09/05 11:37:16;;;;;;;6.70;4.35;;;21.80;99.90;;;;;;5054258;28;20036;-66
2023/09/05 11:39:43;;;;;;;5.50;4.07;;;21.90;99.90;;;;;;5053004;28;20059;-66
2023/09/05 11:42:22;;;;;;;8.05;3.88;;;21.90;99.90;;;;;;5064054;28;20119;-66
2023/09/05 11:44:52;;;;;;;6.03;3.72;;;22.10;99.90;;;;;;5053638;28;20049;-66
2023/09/05 11:47:21;;;;;;;8.50;4.22;;;22.10;99.90;;;;;;5065163;28;20374;-66
2023/09/05 11:49:48;;;;;;;4.70;3.50;;;22.20;99.90;;;;;;5041583;28;20045;-66
2023/09/05 11:52:16;;;;;;;5.65;3.95;;;22.20;99.90;;;;;;5057625;28;20048;-66
2023/09/05 11:54:43;;;;;;;6.93;3.63;;;22.30;99.90;;;;;;5053662;28;20521;-66
2023/09/05 11:57:11;;;;;;;4.07;3.60;;;22.30;99.90;;;;;;5062709;28;20421;-66
2023/09/05 11:59:39;;;;;;;7.22;3.50;;;22.30;99.90;;;;;;5063237;28;20049;-66
2023/09/05 12:02:08;;;;;;;6.82;3.85;;;22.30;99.90;;;;;;5049330;28;20051;-66
2023/09/05 12:04:36;;;;;;;7.15;4.13;;;22.40;99.90;;;;;;5049822;28;20124;-66
2023/09/05 12:07:06;;;;;;;12.52;4.32;;;22.40;99.90;;;;;;5058623;28;20048;-66
2023/09/05 12:09:34;;;;;;;10.32;4.60;;;22.50;99.90;;;;;;5067380;28;20424;-66
2023/09/05 12:12:11;;;;;;;4.40;3.38;;;22.50;99.90;;;;;;5051521;28;20041;-66
2023/09/05 12:14:48;;;;;;;5.22;3.78;;;22.60;99.90;;;;;;5051385;28;20659;-66
2023/09/05 12:17:20;;;;;;;6.05;3.22;;;22.70;99.90;;;;;;5046319;28;20045;-66
2023/09/05 12:19:48;;;;;;;7.10;3.85;;;22.80;99.90;;;;;;5053470;28;20675;-66
2023/09/05 12:22:29;;;;;;;8.07;3.88;;;22.80;99.90;;;;;;5052881;28;20045;-66
2023/09/05 12:25:16;;;;;;;5.50;3.60;;;22.80;99.90;;;;;;5051615;28;20447;-66
2023/09/05 12:27:49;;;;;;;5.97;3.70;;;22.90;99.90;;;;;;5041609;28;20056;-66
2023/09/05 12:30:43;;;;;;;5.72;3.85;;;22.90;99.90;;;;;;5065796;28;20048;-66
2023/09/05 12:33:09;;;;;;;5.15;3.60;;;22.80;99.90;;;;;;5071059;28;20059;-66
2023/09/05 12:35:36;;;;;;;8.15;3.60;;;22.80;99.90;;;;;;5070977;28;20045;-66
2023/09/05 12:38:10;;;;;;;7.25;3.67;;;22.90;99.90;;;;;;5071091;28;20116;-66
2023/09/05 12:40:37;;;;;;;5.15;3.30;;;22.90;99.90;;;;;;5073956;28;20050;-66
2023/09/05 12:43:04;;;;;;;5.90;3.47;;;23.00;99.90;;;;;;5074856;28;20147;-66
2023/09/05 12:45:35;;;;;;;;;;;23.00;99.90;;;;;;5059826;28;20055;-66
2023/09/05 12:48:02;;;;;;;4.90;3.75;;;22.90;99.90;;;;;;5063283;28;20381;-66
2023/09/05 12:50:32;;;;;;;6.43;4.30;;;23.00;99.90;;;;;;5069147;28;20040;-66
2023/09/05 12:53:02;;;;;;;8.48;4.20;;;23.00;99.90;;;;;;5063135;28;20045;-66
2023/09/05 12:55:31;;;;;;;8.18;3.38;;;23.10;99.90;;;;;;5054567;28;20036;-66